createdAt,value
2018-08-13T00:00:01.178Z,45.76
2018-08-13T00:05:05.270Z,45.86
2018-08-13T00:10:09.322Z,47.13
2018-08-13T00:15:12.946Z,46.23
2018-08-13T00:20:16.864Z,46.62
2018-08-13T00:25:20.828Z,47.25
2018-08-13T00:30:29.214Z,47.18
2018-08-13T00:35:32.833Z,46.90
2018-08-13T00:40:36.623Z,47.13
2018-08-13T00:45:40.281Z,47.28
2018-08-13T00:50:43.944Z,47.49
2018-08-13T00:55:47.640Z,48.00
2018-08-13T01:00:51.477Z,48.48
2018-08-13T01:05:55.071Z,48.39
2018-08-13T01:10:59.661Z,48.64
2018-08-13T01:16:03.404Z,47.96
2018-08-13T01:21:07.061Z,48.00
2018-08-13T01:26:10.598Z,47.70
2018-08-13T01:31:15.072Z,48.28
2018-08-13T01:36:18.684Z,48.84
2018-08-13T01:41:22.255Z,49.43
2018-08-13T01:46:25.818Z,50.72
2018-08-13T01:51:29.372Z,51.08
2018-08-13T01:56:32.892Z,51.75
2018-08-13T02:01:36.724Z,51.47
2018-08-13T02:06:40.765Z,52.43
2018-08-13T02:11:44.581Z,52.19
2018-08-13T02:16:48.109Z,51.02
2018-08-13T02:21:51.717Z,53.20
2018-08-13T02:26:55.644Z,54.19
2018-08-13T02:31:59.254Z,53.93
2018-08-13T02:37:02.890Z,53.49
2018-08-13T02:42:06.577Z,53.14
2018-08-13T02:47:10.443Z,52.43
2018-08-13T02:52:14.694Z,51.29
2018-08-13T02:57:18.258Z,51.58
2018-08-13T03:02:22.426Z,51.58
2018-08-13T03:07:26.062Z,51.89
2018-08-13T03:12:29.781Z,51.76
2018-08-13T03:17:33.308Z,52.14
2018-08-13T03:22:37.638Z,52.11
2018-08-13T03:27:41.257Z,52.60
2018-08-13T03:32:45.105Z,54.78
2018-08-13T03:37:48.664Z,56.40
2018-08-13T03:42:52.457Z,56.60
2018-08-13T03:47:57.088Z,57.83
2018-08-13T03:53:00.745Z,57.31
2018-08-13T03:58:04.371Z,57.03
2018-08-13T04:03:08.838Z,56.89
2018-08-13T04:08:13.202Z,56.90
2018-08-13T04:13:16.872Z,56.86
2018-08-13T04:18:20.444Z,56.79
2018-08-13T04:23:24.315Z,56.41
2018-08-13T04:28:27.879Z,57.26
2018-08-13T04:33:33.439Z,56.86
2018-08-13T04:38:37.136Z,57.02
2018-08-13T04:43:40.771Z,56.52
2018-08-13T04:48:44.441Z,55.66
2018-08-13T04:53:48.049Z,55.36
2018-08-13T04:58:52.351Z,52.29
2018-08-13T05:03:56.033Z,51.99
2018-08-13T05:08:59.654Z,51.85
2018-08-13T05:14:03.597Z,50.81
2018-08-13T05:19:07.249Z,51.08
2018-08-13T05:24:10.903Z,51.10
2018-08-13T05:29:14.430Z,51.29
2018-08-13T05:34:18.022Z,51.14
2018-08-13T05:39:21.674Z,50.49
2018-08-13T05:44:25.970Z,50.04
2018-08-13T05:49:29.510Z,49.13
2018-08-13T05:54:33.160Z,50.04
2018-08-13T05:59:36.835Z,49.00
2018-08-13T06:04:40.434Z,50.36
2018-08-13T06:09:44.017Z,50.07
2018-08-13T06:14:47.648Z,49.28
2018-08-13T06:19:51.403Z,48.57
2018-08-13T06:24:55.526Z,49.31
2018-08-13T06:29:59.196Z,49.70
2018-08-13T06:35:02.858Z,50.26
2018-08-13T06:40:07.010Z,49.11
2018-08-13T06:45:11.504Z,48.49
2018-08-13T06:50:15.329Z,47.30
2018-08-13T06:55:18.889Z,45.72
2018-08-13T07:00:33.718Z,45.74
2018-08-13T07:05:37.291Z,47.00
2018-08-13T07:16:05.607Z,47.40
2018-08-13T07:21:10.185Z,48.57
2018-08-13T07:26:13.849Z,51.48
2018-08-13T07:31:17.890Z,54.94
2018-08-13T07:36:21.538Z,54.34
2018-08-13T07:41:25.292Z,53.82
2018-08-13T07:46:28.857Z,55.29
2018-08-13T07:51:32.656Z,57.84
2018-08-13T07:56:36.369Z,58.69
2018-08-13T08:01:39.942Z,61.05
2018-08-13T08:06:43.600Z,64.44
2018-08-13T08:11:47.851Z,66.88
2018-08-13T08:16:51.478Z,67.44
2018-08-13T08:21:55.094Z,70.04
2018-08-13T08:26:58.724Z,69.76
2018-08-13T08:32:02.441Z,69.34
2018-08-13T08:37:06.257Z,68.16
2018-08-13T08:42:10.289Z,67.28
2018-08-13T08:47:14.260Z,66.92
2018-08-13T08:52:19.060Z,67.09
2018-08-13T08:57:23.017Z,66.98
2018-08-13T09:02:26.641Z,65.72
2018-08-13T09:07:30.222Z,66.62
2018-08-13T09:12:36.549Z,65.48
2018-08-13T09:17:53.191Z,62.45
2018-08-13T09:23:08.089Z,61.98
2018-08-13T09:28:23.045Z,59.61
2018-08-13T09:33:37.919Z,60.85
2018-08-13T09:38:42.465Z,60.04
2018-08-13T09:43:46.845Z,60.33
2018-08-13T09:48:51.028Z,60.74
2018-08-13T09:53:54.871Z,60.10
2018-08-13T09:58:58.564Z,60.18
2018-08-13T10:04:02.234Z,60.28
2018-08-13T10:09:09.830Z,61.10
2018-08-13T10:14:13.567Z,59.36
2018-08-13T10:19:20.419Z,58.47
2018-08-13T10:24:25.254Z,57.56
2018-08-13T10:29:29.650Z,55.76
2018-08-13T10:34:35.072Z,55.75
2018-08-13T10:39:38.765Z,55.99
2018-08-13T10:44:44.272Z,55.05
2018-08-13T10:49:48.036Z,54.52
2018-08-13T10:54:51.757Z,54.29
2018-08-13T10:59:56.185Z,54.18
2018-08-13T11:04:59.833Z,51.48
2018-08-13T11:10:07.828Z,53.73
2018-08-13T11:15:17.355Z,53.27
2018-08-13T11:20:21.570Z,50.31
2018-08-13T11:25:25.352Z,48.72
2018-08-13T11:30:30.178Z,50.43
2018-08-13T11:35:34.109Z,50.42
2018-08-13T11:40:37.978Z,49.62
2018-08-13T11:45:42.019Z,47.78
2018-08-13T11:50:46.174Z,47.71
2018-08-13T11:55:49.844Z,46.99
2018-08-13T12:00:53.628Z,46.60
2018-08-13T12:05:59.075Z,46.94
2018-08-13T12:11:03.768Z,48.60
2018-08-13T12:16:08.217Z,46.81
2018-08-13T12:21:12.877Z,50.08
2018-08-13T12:26:16.617Z,49.81
2018-08-13T12:31:20.393Z,49.54
2018-08-13T12:36:24.115Z,48.67
2018-08-13T12:41:27.777Z,50.20
2018-08-13T12:46:31.425Z,51.05
2018-08-13T12:51:35.102Z,51.03
2018-08-13T12:56:39.351Z,49.70
2018-08-13T13:01:43.102Z,49.07
2018-08-13T13:06:46.869Z,49.52
2018-08-13T13:11:50.398Z,51.06
2018-08-13T13:16:54.125Z,51.17
2018-08-13T13:21:57.688Z,51.20
2018-08-13T13:27:01.358Z,51.25
2018-08-13T13:32:05.710Z,51.06
2018-08-13T13:37:09.339Z,54.19
2018-08-13T13:42:13.429Z,55.88
2018-08-13T13:47:17.084Z,59.09
2018-08-13T13:52:20.752Z,60.31
2018-08-13T13:57:24.517Z,61.76
2018-08-13T14:02:28.163Z,62.96
2018-08-13T14:07:31.931Z,64.51
2018-08-13T14:12:35.568Z,64.74
2018-08-13T14:17:40.752Z,63.01
2018-08-13T14:22:46.189Z,60.61
2018-08-13T14:27:49.936Z,62.84
2018-08-13T14:32:54.343Z,63.43
2018-08-13T14:37:58.138Z,63.49
2018-08-13T14:43:01.890Z,63.82
2018-08-13T14:48:06.181Z,64.04
2018-08-13T14:53:10.295Z,66.96
2018-08-13T14:58:14.600Z,66.82
2018-08-13T15:03:18.228Z,67.55
2018-08-13T15:08:22.035Z,68.53
2018-08-13T15:13:25.679Z,69.71
2018-08-13T15:18:29.507Z,73.28
2018-08-13T15:23:33.133Z,72.88
2018-08-13T15:28:36.874Z,66.82
2018-08-13T15:33:40.530Z,65.58
2018-08-13T15:38:44.147Z,65.79
2018-08-13T15:43:48.627Z,66.76
2018-08-13T15:48:53.036Z,67.45
2018-08-13T15:53:56.603Z,68.47
2018-08-13T15:59:00.820Z,70.54
2018-08-13T16:04:04.519Z,67.81
2018-08-13T16:09:17.965Z,68.20
2018-08-13T16:14:21.478Z,67.79
2018-08-13T16:19:25.122Z,70.63
2018-08-13T16:24:28.838Z,71.03
2018-08-13T16:29:32.631Z,72.33
2018-08-13T16:34:36.438Z,72.08
2018-08-13T16:39:40.989Z,71.68
2018-08-13T16:44:44.734Z,69.62
2018-08-13T16:49:48.483Z,68.29
2018-08-13T16:54:52.470Z,67.28
2018-08-13T16:59:56.119Z,63.63
2018-08-13T17:04:59.766Z,64.86
2018-08-13T17:10:03.373Z,66.97
2018-08-13T17:15:08.783Z,67.79
2018-08-13T17:20:15.382Z,68.30
2018-08-13T17:25:18.990Z,65.26
2018-08-13T17:30:31.207Z,60.73
2018-08-13T17:35:35.974Z,59.09
2018-08-13T17:40:39.735Z,59.99
2018-08-13T17:45:43.375Z,63.50
2018-08-13T17:50:47.032Z,65.37
2018-08-13T17:55:50.704Z,67.82
2018-08-13T18:00:54.498Z,68.61
2018-08-13T18:05:58.657Z,69.14
2018-08-13T18:11:02.339Z,69.97
2018-08-13T18:16:06.253Z,69.98
2018-08-13T18:21:09.973Z,69.78
2018-08-13T18:26:13.673Z,70.23
2018-08-13T18:31:17.529Z,71.65
2018-08-13T18:36:21.157Z,72.22
2018-08-13T18:41:24.857Z,72.27
2018-08-13T18:46:29.560Z,73.97
2018-08-13T18:51:34.317Z,72.97
2018-08-13T18:56:39.198Z,73.93
2018-08-13T19:01:43.526Z,74.56
2018-08-13T19:06:48.293Z,75.71
2018-08-13T19:11:53.323Z,76.09
2018-08-13T19:16:58.269Z,76.98
2018-08-13T19:22:04.932Z,78.37
2018-08-13T19:27:11.767Z,77.88
2018-08-13T19:32:17.234Z,79.00
2018-08-13T19:37:20.982Z,79.18
2018-08-13T19:42:25.392Z,80.52
2018-08-13T19:47:30.749Z,78.95
2018-08-13T19:52:35.420Z,80.90
2018-08-13T19:57:39.875Z,79.29
2018-08-13T20:02:43.787Z,80.82
2018-08-13T20:07:49.520Z,81.18
2018-08-13T20:12:54.232Z,81.97
2018-08-13T20:17:58.081Z,80.82
2018-08-13T20:23:03.099Z,80.45
2018-08-13T20:28:06.948Z,81.41
2018-08-13T20:33:12.612Z,82.48
2018-08-13T20:38:16.740Z,81.39
2018-08-13T20:43:20.580Z,82.47
2018-08-13T20:48:25.127Z,82.17
2018-08-13T20:53:29.520Z,82.71
2018-08-13T20:58:33.094Z,83.37
2018-08-13T21:03:37.393Z,83.42
2018-08-13T21:08:41.416Z,81.99
2018-08-13T21:13:45.210Z,81.98
2018-08-13T21:18:48.985Z,81.32
2018-08-13T21:23:53.006Z,81.03
2018-08-13T21:28:57.630Z,80.56
2018-08-13T21:34:02.129Z,80.02
2018-08-13T21:39:07.951Z,81.02
2018-08-13T21:44:11.892Z,80.17
2018-08-13T21:49:15.964Z,79.31
2018-08-13T21:54:19.695Z,79.23
2018-08-13T21:59:23.375Z,78.88
2018-08-13T22:04:27.473Z,79.35
2018-08-13T22:09:31.032Z,79.62
2018-08-13T22:14:34.832Z,80.46
2018-08-13T22:19:38.485Z,81.40
2018-08-13T22:24:53.211Z,80.82
2018-08-13T22:29:56.886Z,81.96
2018-08-13T22:35:00.607Z,81.65
2018-08-13T22:40:04.659Z,82.27
2018-08-13T22:45:09.160Z,82.72
2018-08-13T22:50:12.962Z,83.11
2018-08-13T22:55:17.862Z,84.68
2018-08-13T23:00:26.745Z,85.33
2018-08-13T23:05:30.382Z,86.19
2018-08-13T23:10:34.080Z,86.71
2018-08-13T23:15:37.833Z,87.15
2018-08-13T23:20:42.286Z,87.73
2018-08-13T23:25:46.040Z,89.46
2018-08-13T23:30:49.626Z,89.20
2018-08-13T23:35:53.294Z,89.30
2018-08-13T23:40:57.020Z,90.38
2018-08-13T23:46:00.719Z,90.65
2018-08-13T23:51:04.445Z,89.81
2018-08-13T23:56:08.177Z,89.24
